createdAt,value
2022-12-17T00:01:47.980Z,0.93
2022-12-17T00:04:34.190Z,1.20
2022-12-17T00:07:20.404Z,1.00
2022-12-17T00:10:11.570Z,1.00
2022-12-17T00:12:57.926Z,1.40
2022-12-17T00:15:45.272Z,1.27
2022-12-17T00:18:31.827Z,1.00
2022-12-17T00:21:19.552Z,1.07
2022-12-17T00:24:08.719Z,1.30
2022-12-17T00:26:55.107Z,1.03
2022-12-17T00:29:42.255Z,0.87
2022-12-17T00:32:29.840Z,0.90
2022-12-17T00:35:16.080Z,1.10
2022-12-17T00:38:05.069Z,1.00
2022-12-17T00:40:51.075Z,1.10
2022-12-17T00:43:38.600Z,0.90
2022-12-17T00:46:25.150Z,1.30
2022-12-17T00:49:12.747Z,1.17
2022-12-17T00:51:58.735Z,0.90
2022-12-17T00:54:44.704Z,0.97
2022-12-17T00:57:31.372Z,1.30
2022-12-17T01:00:17.440Z,1.20
2022-12-17T01:03:04.693Z,1.00
2022-12-17T01:05:52.253Z,1.27
2022-12-17T01:08:38.543Z,1.20
2022-12-17T01:11:26.407Z,1.00
2022-12-17T01:14:12.697Z,1.00
2022-12-17T01:16:59.029Z,1.60
2022-12-17T01:19:44.999Z,1.20
2022-12-17T01:22:32.489Z,1.27
2022-12-17T01:25:18.750Z,1.50
2022-12-17T01:28:07.481Z,1.57
2022-12-17T01:30:57.823Z,1.20
2022-12-17T01:33:43.906Z,1.40
2022-12-17T01:36:30.290Z,1.33
2022-12-17T01:39:17.907Z,1.60
2022-12-17T01:42:04.153Z,1.70
2022-12-17T01:45:09.581Z,1.43
2022-12-17T01:48:02.838Z,1.60
2022-12-17T01:50:52.923Z,1.33
2022-12-17T01:53:43.036Z,1.37
2022-12-17T01:56:31.246Z,1.50
2022-12-17T01:59:17.850Z,1.53
2022-12-17T02:02:04.067Z,1.27
2022-12-17T02:04:50.909Z,1.37
2022-12-17T02:07:47.647Z,1.40
2022-12-17T02:10:43.053Z,1.50
2022-12-17T02:13:37.043Z,1.90
2022-12-17T02:16:29.845Z,1.50
2022-12-17T02:19:19.357Z,1.97
2022-12-17T02:22:12.652Z,1.97
2022-12-17T02:25:06.654Z,1.70
2022-12-17T02:27:54.190Z,1.70
2022-12-17T02:30:40.293Z,1.73
2022-12-17T02:33:26.633Z,1.57
2022-12-17T02:36:17.749Z,1.90
2022-12-17T02:39:00.145Z,1.53
2022-12-17T02:41:58.031Z,1.43
2022-12-17T02:44:48.320Z,2.10
2022-12-17T02:47:37.015Z,2.10
2022-12-17T02:50:24.224Z,1.90
2022-12-17T02:53:12.982Z,2.13
2022-12-17T02:55:58.792Z,2.20
2022-12-17T02:58:45.928Z,2.13
2022-12-17T03:01:34.456Z,2.10
2022-12-17T03:04:23.063Z,1.83
2022-12-17T03:07:09.877Z,2.27
2022-12-17T03:09:56.512Z,2.60
2022-12-17T03:12:43.664Z,2.77
2022-12-17T03:15:29.612Z,2.33
2022-12-17T03:18:18.044Z,3.13
2022-12-17T03:21:04.225Z,2.63
2022-12-17T03:23:50.503Z,2.87
2022-12-17T03:26:37.368Z,2.37
2022-12-17T03:29:23.567Z,2.37
2022-12-17T03:32:09.813Z,2.43
2022-12-17T03:34:57.334Z,2.50
2022-12-17T03:37:39.849Z,3.00
2022-12-17T03:40:26.570Z,3.40
2022-12-17T03:43:12.804Z,2.50
2022-12-17T03:45:58.718Z,2.17
2022-12-17T03:48:46.849Z,2.73
2022-12-17T03:51:48.916Z,2.77
2022-12-17T03:54:34.834Z,2.53
2022-12-17T03:57:21.190Z,2.70
2022-12-17T04:00:08.203Z,2.77
2022-12-17T04:03:00.291Z,2.73
2022-12-17T04:05:46.559Z,2.90
2022-12-17T04:08:35.041Z,2.80
2022-12-17T04:11:21.007Z,3.00
2022-12-17T04:14:07.780Z,2.63
2022-12-17T04:16:54.029Z,3.27
2022-12-17T04:19:39.846Z,2.50
2022-12-17T04:22:25.727Z,2.40
2022-12-17T04:25:14.742Z,2.53
2022-12-17T04:28:00.660Z,2.57
2022-12-17T04:30:46.474Z,2.67
2022-12-17T04:33:32.836Z,2.80
2022-12-17T04:36:18.905Z,2.50
2022-12-17T04:39:05.026Z,2.63
2022-12-17T04:41:52.690Z,2.50
2022-12-17T04:44:38.585Z,2.37
2022-12-17T04:47:25.361Z,2.37
2022-12-17T04:50:11.574Z,2.20
2022-12-17T04:52:58.388Z,2.40
2022-12-17T04:55:44.545Z,2.37
2022-12-17T04:58:32.255Z,2.00
2022-12-17T05:01:18.071Z,2.40
2022-12-17T05:04:04.256Z,2.43
2022-12-17T05:06:50.609Z,2.40
2022-12-17T05:09:36.730Z,2.17
2022-12-17T05:12:24.088Z,2.63
2022-12-17T05:15:11.814Z,2.53
2022-12-17T05:18:12.219Z,2.07
2022-12-17T05:20:58.366Z,2.70
2022-12-17T05:23:44.255Z,2.47
2022-12-17T05:26:37.492Z,3.20
2022-12-17T05:29:23.351Z,2.53
2022-12-17T05:32:11.916Z,2.17
2022-12-17T05:34:58.146Z,2.93
2022-12-17T05:37:44.349Z,2.17
2022-12-17T05:40:30.813Z,2.40
2022-12-17T05:43:18.043Z,2.97
2022-12-17T05:46:04.311Z,2.27
2022-12-17T05:48:52.595Z,2.50
2022-12-17T05:51:39.403Z,2.03
2022-12-17T05:54:26.715Z,2.87
2022-12-17T05:57:13.277Z,3.03
2022-12-17T05:59:59.789Z,2.63
2022-12-17T06:02:45.987Z,3.00
2022-12-17T06:05:34.713Z,2.87
2022-12-17T06:08:24.685Z,2.50
2022-12-17T06:11:11.218Z,2.77
2022-12-17T06:13:57.400Z,2.53
2022-12-17T06:16:43.794Z,2.40
2022-12-17T06:19:29.616Z,2.37
2022-12-17T06:22:17.060Z,2.97
2022-12-17T06:25:03.290Z,2.30
2022-12-17T06:27:50.281Z,2.57
2022-12-17T06:30:36.179Z,2.07
2022-12-17T06:33:23.760Z,2.53
2022-12-17T06:36:18.043Z,2.57
2022-12-17T06:39:26.464Z,2.83
2022-12-17T06:42:12.888Z,2.47
2022-12-17T06:44:59.147Z,2.87
2022-12-17T06:47:46.034Z,2.67
2022-12-17T06:50:32.123Z,2.80
2022-12-17T06:53:19.627Z,2.87
2022-12-17T06:56:07.279Z,2.93
2022-12-17T06:58:53.463Z,2.93
2022-12-17T07:01:40.989Z,2.90
2022-12-17T07:04:27.404Z,3.20
2022-12-17T07:07:13.516Z,2.83
2022-12-17T07:09:59.933Z,3.33
2022-12-17T07:12:48.558Z,2.80
2022-12-17T07:15:34.510Z,2.10
2022-12-17T07:18:22.488Z,1.90
2022-12-17T07:21:11.416Z,1.97
2022-12-17T07:23:53.775Z,1.57
2022-12-17T07:26:40.151Z,1.17
2022-12-17T07:29:27.680Z,1.53
2022-12-17T07:32:13.707Z,1.53
2022-12-17T07:34:59.707Z,2.30
2022-12-17T07:37:45.496Z,1.70
2022-12-17T07:40:31.611Z,1.80
2022-12-17T07:43:17.520Z,2.43
2022-12-17T07:46:05.019Z,1.50
2022-12-17T07:48:51.135Z,2.10
2022-12-17T07:51:37.189Z,1.70
2022-12-17T07:54:23.458Z,1.80
2022-12-17T07:57:09.568Z,1.97
2022-12-17T08:00:04.125Z,1.77
2022-12-17T08:02:52.317Z,1.70
2022-12-17T08:05:38.328Z,1.87
2022-12-17T08:08:28.762Z,1.57
2022-12-17T08:11:15.185Z,2.43
2022-12-17T08:14:01.346Z,1.40
2022-12-17T08:16:48.055Z,1.63
2022-12-17T08:19:35.815Z,1.60
2022-12-17T08:22:21.760Z,1.70
2022-12-17T08:25:08.053Z,1.73
2022-12-17T08:27:54.475Z,1.30
2022-12-17T08:30:40.897Z,1.73
2022-12-17T08:33:27.220Z,1.87
2022-12-17T08:36:16.935Z,1.80
2022-12-17T08:39:04.128Z,1.60
2022-12-17T08:41:54.829Z,1.83
2022-12-17T08:44:42.153Z,2.10
2022-12-17T08:47:28.292Z,2.17
2022-12-17T08:50:14.200Z,2.10
2022-12-17T08:53:03.935Z,2.40
2022-12-17T08:55:50.184Z,3.47
2022-12-17T08:58:36.592Z,2.73
2022-12-17T09:01:22.724Z,3.27
2022-12-17T09:04:09.091Z,2.00
2022-12-17T09:06:55.403Z,2.73
2022-12-17T09:09:43.810Z,2.30
2022-12-17T09:12:29.807Z,2.87
2022-12-17T09:15:16.689Z,3.10
2022-12-17T09:18:02.888Z,2.87
2022-12-17T09:20:49.408Z,2.23
2022-12-17T09:23:36.777Z,2.37
2022-12-17T09:26:24.475Z,2.43
2022-12-17T09:29:10.839Z,2.20
2022-12-17T09:31:57.159Z,2.17
2022-12-17T09:34:43.879Z,2.97
2022-12-17T09:37:30.632Z,2.17
2022-12-17T09:40:17.264Z,2.23
2022-12-17T09:43:12.518Z,2.50
2022-12-17T09:46:08.900Z,2.57
2022-12-17T09:48:59.118Z,2.20
2022-12-17T09:51:47.580Z,2.63
2022-12-17T09:54:41.057Z,3.17
2022-12-17T09:57:32.928Z,2.57
2022-12-17T10:00:22.555Z,2.63
2022-12-17T10:03:09.042Z,2.53
2022-12-17T10:05:55.694Z,2.67
2022-12-17T10:08:40.832Z,2.77
2022-12-17T10:11:38.582Z,2.63
2022-12-17T10:14:37.387Z,3.67
2022-12-17T10:17:32.604Z,4.10
2022-12-17T10:20:20.200Z,4.43
2022-12-17T10:23:07.881Z,3.43
2022-12-17T10:25:55.060Z,3.50
2022-12-17T10:28:43.157Z,3.20
2022-12-17T10:31:33.971Z,2.10
2022-12-17T10:34:27.290Z,2.83
2022-12-17T10:37:13.388Z,2.27
2022-12-17T10:40:01.108Z,2.33
2022-12-17T10:42:49.045Z,2.00
2022-12-17T10:45:41.246Z,6.33
2022-12-17T10:48:38.068Z,3.20
2022-12-17T10:51:50.188Z,2.80
2022-12-17T10:54:46.951Z,2.60
2022-12-17T10:57:43.384Z,2.50
2022-12-17T11:00:49.326Z,3.30
2022-12-17T11:03:58.114Z,3.50
2022-12-17T11:06:49.260Z,4.00
2022-12-17T11:09:51.024Z,3.93
2022-12-17T11:12:41.257Z,3.17
2022-12-17T11:15:37.260Z,3.10
2022-12-17T11:18:25.335Z,16.20
2022-12-17T11:21:20.791Z,3.37
2022-12-17T11:24:12.252Z,4.17
2022-12-17T11:27:03.839Z,3.07
2022-12-17T11:29:49.992Z,3.60
2022-12-17T11:33:03.362Z,3.73
2022-12-17T11:35:55.199Z,3.50
2022-12-17T11:38:58.198Z,3.43
2022-12-17T11:41:53.583Z,3.90
2022-12-17T11:44:51.322Z,2.73
2022-12-17T11:47:44.460Z,2.53
2022-12-17T11:50:39.236Z,3.00
2022-12-17T11:53:37.071Z,4.80
2022-12-17T11:56:31.132Z,4.37
2022-12-17T11:59:40.970Z,2.50
2022-12-17T12:02:39.721Z,2.20
2022-12-17T12:05:36.294Z,2.50
2022-12-17T12:08:36.887Z,2.43
2022-12-17T12:11:33.550Z,3.17
2022-12-17T12:14:28.606Z,3.87
2022-12-17T12:17:38.034Z,3.20
2022-12-17T12:20:32.604Z,3.20
2022-12-17T12:23:27.057Z,3.03
2022-12-17T12:26:21.867Z,2.77
2022-12-17T12:29:16.312Z,2.07
2022-12-17T12:32:10.953Z,2.23
2022-12-17T12:34:54.254Z,2.23
2022-12-17T12:37:49.559Z,2.47
2022-12-17T12:40:45.533Z,2.30
2022-12-17T12:43:40.440Z,2.17
2022-12-17T12:46:30.611Z,2.60
2022-12-17T12:49:23.933Z,2.30
2022-12-17T12:55:14.991Z,3.00
2022-12-17T12:58:15.647Z,2.27
2022-12-17T13:01:12.492Z,1.60
2022-12-17T13:04:08.577Z,2.27
2022-12-17T13:06:49.063Z,1.40
2022-12-17T13:09:35.184Z,1.40
2022-12-17T13:12:36.466Z,1.90
2022-12-17T13:15:21.174Z,3.20
2022-12-17T13:18:06.938Z,2.20
2022-12-17T13:20:36.205Z,1.40
2022-12-17T13:23:32.075Z,2.27
2022-12-17T13:26:20.593Z,2.60
2022-12-17T13:29:03.281Z,2.30
2022-12-17T13:31:45.487Z,1.60
2022-12-17T13:34:21.746Z,2.57
2022-12-17T13:36:59.038Z,2.30
2022-12-17T13:39:48.448Z,2.30
2022-12-17T13:42:20.479Z,3.03
2022-12-17T13:44:50.050Z,3.70
2022-12-17T13:47:24.021Z,3.83
2022-12-17T13:50:31.476Z,3.13
2022-12-17T13:52:43.091Z,2.87
2022-12-17T13:55:21.246Z,3.10
2022-12-17T13:57:51.839Z,2.80
2022-12-17T14:00:23.939Z,3.60
2022-12-17T14:02:53.474Z,4.43
2022-12-17T14:05:27.089Z,3.10
2022-12-17T14:07:58.631Z,8.97
2022-12-17T14:10:30.130Z,3.60
2022-12-17T14:13:07.068Z,3.20
2022-12-17T14:15:36.631Z,2.77
2022-12-17T14:18:06.279Z,2.60
2022-12-17T14:20:37.034Z,2.90
2022-12-17T14:23:09.357Z,2.90
2022-12-17T14:25:41.327Z,2.50
2022-12-17T14:28:24.572Z,2.90
2022-12-17T14:31:25.500Z,2.87
2022-12-17T14:33:44.683Z,3.03
2022-12-17T14:36:21.051Z,2.03
2022-12-17T14:38:57.586Z,2.20
2022-12-17T14:41:57.476Z,3.30
2022-12-17T14:44:28.770Z,2.67
2022-12-17T14:47:10.630Z,2.07
2022-12-17T14:49:55.686Z,3.23
2022-12-17T14:52:31.987Z,2.80
2022-12-17T14:55:01.058Z,2.43
2022-12-17T14:57:31.082Z,2.47
2022-12-17T14:59:59.841Z,2.77
2022-12-17T15:02:34.071Z,8.27
2022-12-17T15:05:04.713Z,5.00
2022-12-17T15:07:34.416Z,3.80
2022-12-17T15:10:10.978Z,3.43
2022-12-17T15:12:43.562Z,2.47
2022-12-17T15:15:14.516Z,2.70
2022-12-17T15:17:45.046Z,2.23
2022-12-17T15:20:18.665Z,2.87
2022-12-17T15:22:47.491Z,3.60
2022-12-17T15:25:19.108Z,3.63
2022-12-17T15:27:49.422Z,3.33
2022-12-17T15:30:21.974Z,2.80
2022-12-17T15:32:50.811Z,3.50
2022-12-17T15:35:19.603Z,3.80
2022-12-17T15:37:48.356Z,3.93
2022-12-17T15:40:17.166Z,5.30
2022-12-17T15:43:18.129Z,4.77
2022-12-17T15:45:50.498Z,8.02
2022-12-17T15:48:22.226Z,7.43
2022-12-17T15:50:51.188Z,8.37
2022-12-17T15:53:19.846Z,8.37
2022-12-17T15:55:48.513Z,8.43
2022-12-17T15:58:17.220Z,8.97
2022-12-17T16:00:47.542Z,8.73
2022-12-17T16:03:16.285Z,8.30
2022-12-17T16:05:45.104Z,6.57
2022-12-17T16:08:13.989Z,6.47
2022-12-17T16:10:42.661Z,6.97
2022-12-17T16:13:11.373Z,5.93
2022-12-17T16:15:40.300Z,5.40
2022-12-17T16:18:10.484Z,5.60
2022-12-17T16:20:39.702Z,6.07
2022-12-17T16:23:08.339Z,6.57
2022-12-17T16:25:37.222Z,6.83
2022-12-17T16:28:06.213Z,5.80
2022-12-17T16:30:37.654Z,5.47
2022-12-17T16:33:06.265Z,6.30
2022-12-17T16:35:36.385Z,6.47
2022-12-17T16:38:05.066Z,5.73
2022-12-17T16:40:36.019Z,7.60
2022-12-17T16:43:04.779Z,7.47
2022-12-17T16:45:33.714Z,5.90
2022-12-17T16:48:02.917Z,5.73
2022-12-17T16:50:31.711Z,5.90
2022-12-17T16:53:01.740Z,5.63
2022-12-17T16:55:30.390Z,5.37
2022-12-17T16:57:58.973Z,5.10
2022-12-17T17:00:27.575Z,4.90
2022-12-17T17:02:56.390Z,5.20
2022-12-17T17:05:25.129Z,4.93
2022-12-17T17:07:53.732Z,4.17
2022-12-17T17:10:23.838Z,4.37
2022-12-17T17:12:53.290Z,16.73
2022-12-17T17:15:22.479Z,6.57
2022-12-17T17:17:54.920Z,5.43
2022-12-17T17:20:24.197Z,6.07
2022-12-17T17:22:52.960Z,6.87
2022-12-17T17:25:22.431Z,6.70
2022-12-17T17:27:53.042Z,6.30
2022-12-17T17:30:21.758Z,5.43
2022-12-17T17:32:50.538Z,5.70
2022-12-17T17:35:19.390Z,6.27
2022-12-17T17:37:48.037Z,5.60
2022-12-17T17:40:17.773Z,5.23
2022-12-17T17:42:51.563Z,5.50
2022-12-17T17:45:23.554Z,5.10
2022-12-17T17:47:52.237Z,4.53
2022-12-17T17:50:20.861Z,3.90
2022-12-17T17:52:49.483Z,4.03
2022-12-17T17:55:18.223Z,5.10
2022-12-17T17:57:46.807Z,5.17
2022-12-17T18:00:16.975Z,5.47
2022-12-17T18:02:49.153Z,5.43
2022-12-17T18:05:18.013Z,5.50
2022-12-17T18:07:48.093Z,5.10
2022-12-17T18:10:17.149Z,5.07
2022-12-17T18:13:03.134Z,4.80
2022-12-17T18:15:32.677Z,4.93
2022-12-17T18:18:02.724Z,5.30
2022-12-17T18:20:31.442Z,5.23
2022-12-17T18:23:00.172Z,4.83
2022-12-17T18:25:34.266Z,4.77
2022-12-17T18:28:06.200Z,5.10
2022-12-17T18:30:39.711Z,4.87
2022-12-17T18:33:10.337Z,5.70
2022-12-17T18:35:39.010Z,4.10
2022-12-17T18:38:07.625Z,3.83
2022-12-17T18:40:37.120Z,3.73
2022-12-17T18:43:23.289Z,4.27
2022-12-17T18:45:52.938Z,4.20
2022-12-17T18:48:23.064Z,4.50
2022-12-17T18:50:51.767Z,5.33
2022-12-17T18:53:20.363Z,5.67
2022-12-17T18:55:49.050Z,5.40
2022-12-17T18:58:17.764Z,4.40
2022-12-17T19:00:46.555Z,6.23
2022-12-17T19:03:15.190Z,7.47
2022-12-17T19:05:48.110Z,8.07
2022-12-17T19:08:18.851Z,10.77
2022-12-17T19:10:48.037Z,6.87
2022-12-17T19:13:16.712Z,8.83
2022-12-17T19:15:45.290Z,7.73
2022-12-17T19:18:13.951Z,5.80
2022-12-17T19:20:42.546Z,4.47
2022-12-17T19:23:12.534Z,4.83
2022-12-17T19:25:41.186Z,4.87
2022-12-17T19:28:09.851Z,4.57
2022-12-17T19:30:38.438Z,3.73
2022-12-17T19:33:08.659Z,4.37
2022-12-17T19:35:37.321Z,5.07
2022-12-17T19:38:05.990Z,4.03
2022-12-17T19:40:38.607Z,4.43
2022-12-17T19:43:07.683Z,4.60
2022-12-17T19:45:36.325Z,4.00
2022-12-17T19:48:05.245Z,7.00
2022-12-17T19:50:33.915Z,5.93
2022-12-17T19:53:03.484Z,5.60
2022-12-17T19:55:32.876Z,8.60
2022-12-17T19:58:02.906Z,3.40
2022-12-17T20:00:31.769Z,3.80
2022-12-17T20:03:01.584Z,4.30
2022-12-17T20:05:30.298Z,3.30
2022-12-17T20:07:59.023Z,3.17
2022-12-17T20:10:27.683Z,3.23
2022-12-17T20:12:56.275Z,3.00
2022-12-17T20:15:26.347Z,3.47
2022-12-17T20:17:55.049Z,3.10
2022-12-17T20:20:23.661Z,4.07
2022-12-17T20:22:52.283Z,3.30
2022-12-17T20:25:20.994Z,3.33
2022-12-17T20:27:49.688Z,6.20
2022-12-17T20:30:18.405Z,2.90
2022-12-17T20:32:48.444Z,3.87
2022-12-17T20:35:17.408Z,3.53
2022-12-17T20:37:46.151Z,3.50
2022-12-17T20:40:16.945Z,3.60
2022-12-17T20:42:48.645Z,5.80
2022-12-17T20:45:18.332Z,5.43
2022-12-17T20:47:48.329Z,4.53
2022-12-17T20:50:17.015Z,4.73
2022-12-17T20:52:45.646Z,3.97
2022-12-17T20:55:14.383Z,3.70
2022-12-17T20:57:42.998Z,4.27
2022-12-17T21:00:13.600Z,3.93
2022-12-17T21:02:42.260Z,3.77
2022-12-17T21:05:12.720Z,5.17
2022-12-17T21:07:41.384Z,5.07
2022-12-17T21:10:10.498Z,3.57
2022-12-17T21:12:53.073Z,4.00
2022-12-17T21:15:22.844Z,4.37
2022-12-17T21:17:51.425Z,4.50
2022-12-17T21:20:22.307Z,4.43
2022-12-17T21:22:51.332Z,5.23
2022-12-17T21:25:21.136Z,3.60
2022-12-17T21:27:49.787Z,4.93
2022-12-17T21:30:18.535Z,6.30
2022-12-17T21:32:47.128Z,5.13
2022-12-17T21:35:16.090Z,7.63
2022-12-17T21:37:47.232Z,5.30
2022-12-17T21:40:16.955Z,6.67
2022-12-17T21:43:03.902Z,4.33
2022-12-17T21:45:37.862Z,2.70
2022-12-17T21:48:12.631Z,3.53
2022-12-17T21:50:46.289Z,4.27
2022-12-17T21:53:17.047Z,4.47
2022-12-17T21:55:47.054Z,3.67
2022-12-17T21:58:16.380Z,4.17
2022-12-17T22:00:45.158Z,3.97
2022-12-17T22:03:13.938Z,5.60
2022-12-17T22:05:42.584Z,14.65
2022-12-17T22:08:12.770Z,4.67
2022-12-17T22:10:52.497Z,3.43
2022-12-17T22:13:38.987Z,3.83
2022-12-17T22:16:08.340Z,3.80
2022-12-17T22:18:37.435Z,4.47
2022-12-17T22:21:06.386Z,4.40
2022-12-17T22:23:35.050Z,4.47
2022-12-17T22:26:10.794Z,3.30
2022-12-17T22:28:39.978Z,3.23
2022-12-17T22:31:26.846Z,3.77
2022-12-17T22:34:20.189Z,5.53
2022-12-17T22:38:07.602Z,4.23
2022-12-17T22:43:10.065Z,3.13
2022-12-17T22:44:36.966Z,3.90
2022-12-17T22:45:30.256Z,3.80
2022-12-17T22:47:58.893Z,4.30
2022-12-17T22:50:34.398Z,4.23
2022-12-17T22:53:16.798Z,4.30
2022-12-17T22:55:45.924Z,4.67
2022-12-17T22:58:16.230Z,5.20
2022-12-17T23:00:44.909Z,4.43
2022-12-17T23:03:13.812Z,4.10
2022-12-17T23:05:43.081Z,3.67
2022-12-17T23:08:11.800Z,5.43
2022-12-17T23:10:40.472Z,3.90
2022-12-17T23:13:09.097Z,3.87
2022-12-17T23:15:39.227Z,3.33
2022-12-17T23:18:09.653Z,3.30
2022-12-17T23:20:38.660Z,3.63
2022-12-17T23:23:07.262Z,3.90
2022-12-17T23:25:36.682Z,3.47
2022-12-17T23:28:05.703Z,3.10
2022-12-17T23:30:34.681Z,3.07
2022-12-17T23:33:04.874Z,2.50
2022-12-17T23:35:33.561Z,2.10
2022-12-17T23:38:02.288Z,2.23
2022-12-17T23:40:30.970Z,2.53
2022-12-17T23:43:00.781Z,5.63
2022-12-17T23:45:29.457Z,2.23
2022-12-17T23:47:59.530Z,2.00
2022-12-17T23:50:29.534Z,1.73
2022-12-17T23:52:58.116Z,1.70
2022-12-17T23:55:26.759Z,1.67
2022-12-17T23:57:56.793Z,1.40
